This is the latest recevied weather packets stored in our database for station/object DL1BWU. If no packets are shown the sender has not sent any weather packets the latest 10 day(s).
| Time | Temp. | Humidity | Pressure | Rain* | Wind** | Luminosity | Snow |
|---|---|---|---|---|---|---|---|
| 1777541123 | 15° C | 42% | 1032.2 hPa | 0 mm | - | - | - |
| 1777540523 | 14.44° C | 43% | 1032.3 hPa | 0 mm | - | - | - |
| 1777539923 | 14.44° C | 44% | 1032.4 hPa | 0 mm | - | - | - |
| 1777539323 | 13.89° C | 44% | 1032.4 hPa | 0 mm | - | - | - |
| 1777538723 | 13.33° C | 46% | 1032.6 hPa | 0 mm | - | - | - |
| 1777538123 | 13.33° C | 46% | 1032.5 hPa | 0 mm | - | - | - |
| 1777537523 | 12.78° C | 47% | 1032.4 hPa | 0 mm | - | - | - |
| 1777536923 | 12.22° C | 49% | 1032.6 hPa | 0 mm | - | - | - |
| 1777536323 | 11.67° C | 50% | 1032.7 hPa | 0 mm | - | - | - |
| 1777535723 | 10.56° C | 52% | 1032.8 hPa | 0 mm | - | - | - |
| 1777535123 | 10° C | 54% | 1032.9 hPa | 0 mm | - | - | - |
| 1777534523 | 9.44° C | 55% | 1032.9 hPa | 0 mm | - | - | - |
| 1777533923 | 7.78° C | 59% | 1032.9 hPa | 0 mm | - | - | - |
| 1777533323 | 7.78° C | 62% | 1032.8 hPa | 0 mm | - | - | - |
| 1777532723 | 7.22° C | 64% | 1032.8 hPa | 0 mm | - | - | - |
| 1777532123 | 6.11° C | 65% | 1032.9 hPa | 0 mm | - | - | - |
| 1777531523 | 5.56° C | 66% | 1033 hPa | 0 mm | - | - | - |
| 1777530923 | 5° C | 66% | 1032.9 hPa | 0 mm | - | - | - |
| 1777530323 | 3.89° C | 67% | 1032.9 hPa | 0 mm | - | - | - |
| 1777529723 | 3.89° C | 67% | 1033 hPa | 0 mm | - | - | - |
| 1777529123 | 3.89° C | 66% | 1032.9 hPa | 0 mm | - | - | - |
| 1777528523 | 3.33° C | 66% | 1032.9 hPa | 0 mm | - | - | - |
| 1777527923 | 2.78° C | 66% | 1032.8 hPa | 0 mm | - | - | - |
| 1777527324 | 2.22° C | 66% | 1033.1 hPa | 0 mm | - | - | - |
| 1777526724 | 2.22° C | 66% | 1032.8 hPa | 0 mm | - | - | - |
* Rain latest hour (hover to see other rain measurements)
** Current wind speed in m/s (hover to see current wind gust speed)